Terminal Aerodrome Forecast
Issued by NWS Charleston, WV

Current Version | Previous Version | Graphics & Text | Print | Product List | Glossary On
Versions: 1 2 3 4 5 6 7 8 9 10 11 12 13 14 15 16 17 18 19 20 21 22 23 24 25 26 27 28
349
FTUS41 KRLX 140302 AAA
TAFEKN
TAF AMD
KEKN 140302Z 1403/1424 20012G22KT P6SM OVC070
     FM140400 23012G23KT P6SM OVC040
      TEMPO 1404/1406 2SM -SHSN OVC022
     FM140600 25014G27KT P6SM OVC035
      TEMPO 1406/1409 1SM -SHSN OVC018
     FM140900 27016G29KT 1 1/2SM -SHSN OVC020
     FM141200 28014G27KT 3SM -SHSN BKN020
     FM141300 29010G19KT P6SM BKN015
     FM142100 30005KT P6SM BKN023=

USA.gov is the U.S. government's official web portal to all federal, state and local government web resources and services.